Time;durP1;ratioP1;P1;durP2;ratioP2;P2;SDS_P1;SDS_P2;PMS_P1;PMS_P2;Temp;Humidity;BMP_temperature;BMP_pressure;BME280_temperature;BME280_humidity;BME280_pressure;Samples;Min_cycle;Max_cycle;Signal;HPM_P1;HPM_P2
2022/06/23 00:01:05;;;;;;;6.32;2.60;;;19.70;99.90;;;;;;4163067;28;20051;-45
2022/06/23 00:03:30;;;;;;;3.22;3.03;;;19.50;99.90;;;;;;4163353;28;20072;-44
2022/06/23 00:06:03;;;;;;;2.30;2.15;;;19.70;99.90;;;;;;4163404;28;20048;-43
2022/06/23 00:08:24;;;;;;;2.30;2.17;;;19.70;99.90;;;;;;4175239;28;20138;-44
2022/06/23 00:10:54;;;;;;;2.85;2.75;;;19.70;99.90;;;;;;4179388;28;20535;-45
2022/06/23 00:13:21;;;;;;;4.35;3.47;;;19.70;99.90;;;;;;4179505;28;20063;-44
2022/06/23 00:15:44;;;;;;;2.47;2.28;;;19.50;99.90;;;;;;4179140;28;20681;-45
2022/06/23 00:18:14;;;;;;;3.15;2.90;;;19.20;99.90;;;;;;4178976;28;20052;-44
2022/06/23 00:20:58;;;;;;;3.22;2.83;;;19.20;99.90;;;;;;4179670;28;20972;-43
2022/06/23 00:23:38;;;;;;;2.80;2.55;;;19.30;99.90;;;;;;4179495;28;20457;-43
2022/06/23 00:26:12;;;;;;;2.53;2.22;;;19.50;99.90;;;;;;4179130;28;20052;-45
2022/06/23 00:28:35;;;;;;;2.63;2.42;;;19.30;99.90;;;;;;4162736;28;20052;-44
2022/06/23 00:31:02;;;;;;;2.38;2.28;;;19.10;99.90;;;;;;4162672;28;20045;-42
2022/06/23 00:33:27;;;;;;;3.22;2.55;;;19.00;99.90;;;;;;4162794;28;20056;-44
2022/06/23 00:35:50;;;;;;;2.72;2.53;;;19.10;99.90;;;;;;4162602;28;20095;-45
2022/06/23 00:38:26;;;;;;;;;;;19.10;99.90;;;;;;4163224;28;20064;-45
2022/06/23 00:40:47;;;;;;;2.60;2.50;;;19.10;99.90;;;;;;4162431;28;20458;-44
2022/06/23 00:43:10;;;;;;;2.88;2.63;;;19.10;99.90;;;;;;4165693;28;20094;-45
2022/06/23 00:45:51;;;;;;;3.60;3.15;;;19.00;99.90;;;;;;4176912;28;20128;-43
2022/06/23 00:48:11;;;;;;;3.75;3.45;;;19.20;99.90;;;;;;4162356;28;20096;-46
2022/06/23 00:50:35;;;;;;;3.53;3.25;;;19.10;99.90;;;;;;4174299;28;20729;-44
2022/06/23 00:53:28;;;;;;;3.50;3.30;;;18.80;99.90;;;;;;4168225;28;20056;-44
2022/06/23 00:56:07;;;;;;;2.97;2.88;;;18.80;99.90;;;;;;4161915;28;20052;-44
2022/06/23 00:58:30;;;;;;;4.50;3.83;;;18.80;99.90;;;;;;4161392;28;20045;-44
2022/06/23 01:00:55;;;;;;;2.90;2.67;;;18.80;99.90;;;;;;4162438;28;20409;-45
2022/06/23 01:03:26;;;;;;;4.43;3.65;;;19.00;99.90;;;;;;4162042;28;20550;-46
2022/06/23 01:05:51;;;;;;;3.90;3.80;;;18.70;99.90;;;;;;4161998;28;20045;-46
2022/06/23 01:08:28;;;;;;;4.28;3.78;;;18.80;99.90;;;;;;4167033;28;20149;-44
2022/06/23 01:11:11;;;;;;;3.95;3.30;;;19.00;99.90;;;;;;4163165;28;20048;-44
2022/06/23 01:13:49;;;;;;;3.58;3.47;;;18.70;99.90;;;;;;4162156;28;20048;-44
2022/06/23 01:16:20;;;;;;;3.75;3.55;;;18.80;99.90;;;;;;4162139;28;20573;-45
2022/06/23 01:18:49;;;;;;;4.25;3.85;;;18.80;99.90;;;;;;4164367;28;20091;-44
2022/06/23 01:21:19;;;;;;;4.63;4.43;;;18.60;99.90;;;;;;4162698;28;20095;-47
2022/06/23 01:24:23;;;;;;;8.02;4.60;;;18.50;99.90;;;;;;4177351;28;20051;-45
2022/06/23 01:27:02;;;;;;;4.30;4.10;;;18.70;99.90;;;;;;4161850;28;20061;-43
2022/06/23 01:29:41;;;;;;;4.70;4.45;;;18.80;99.90;;;;;;4161907;28;20760;-43
2022/06/23 01:32:08;;;;;;;5.22;4.95;;;18.70;99.90;;;;;;4161978;28;20076;-48
2022/06/23 01:34:33;;;;;;;6.93;3.95;;;18.60;99.90;;;;;;4161423;28;20477;-43
2022/06/23 01:37:05;;;;;;;4.18;3.92;;;18.50;99.90;;;;;;4161424;28;20137;-45
2022/06/23 01:39:43;;;;;;;3.75;3.65;;;18.30;99.90;;;;;;4161598;28;20103;-45
2022/06/23 01:42:20;;;;;;;3.90;3.70;;;18.00;99.90;;;;;;4161783;28;20055;-44
2022/06/23 01:45:02;;;;;;;4.05;3.60;;;18.20;99.90;;;;;;4177398;28;20064;-43
2022/06/23 01:47:39;;;;;;;3.65;3.45;;;18.40;99.90;;;;;;4165301;28;20064;-43
2022/06/23 01:50:43;;;;;;;3.17;3.08;;;18.40;99.90;;;;;;4168711;28;20068;-44
2022/06/23 01:53:13;;;;;;;3.85;3.75;;;18.40;99.90;;;;;;4170687;28;20053;-44
2022/06/23 01:55:52;;;;;;;3.72;3.63;;;18.40;99.90;;;;;;4161382;28;20157;-45
2022/06/23 01:58:16;;;;;;;5.47;3.20;;;18.30;99.90;;;;;;4161168;28;20133;-43
2022/06/23 02:00:42;;;;;;;4.38;3.97;;;18.30;99.90;;;;;;4161509;28;20654;-43
2022/06/23 02:03:41;;;;;;;3.30;3.05;;;18.30;99.90;;;;;;4161096;28;20052;-43
2022/06/23 02:06:20;;;;;;;4.97;4.65;;;18.20;99.90;;;;;;4167613;28;20052;-43
2022/06/23 02:09:18;;;;;;;4.07;3.90;;;18.20;99.90;;;;;;4175288;28;20052;-43
2022/06/23 02:11:51;;;;;;;4.65;4.25;;;18.10;99.90;;;;;;4173398;28;20051;-43
2022/06/23 02:14:14;;;;;;;;;;;18.00;99.90;;;;;;4176006;28;20131;-42
2022/06/23 02:16:59;;;;;;;3.55;3.38;;;17.90;99.90;;;;;;4175363;28;19959;-45
2022/06/23 02:19:39;;;;;;;4.03;3.92;;;17.80;99.90;;;;;;4170737;28;20107;-44
2022/06/23 02:22:21;;;;;;;4.43;4.13;;;17.80;99.90;;;;;;4175101;28;20064;-44
2022/06/23 02:24:59;;;;;;;3.75;3.55;;;17.80;99.90;;;;;;4175186;28;20065;-45
2022/06/23 02:27:37;;;;;;;3.55;3.35;;;17.90;99.90;;;;;;4175142;28;20102;-43
2022/06/23 02:30:03;;;;;;;4.00;3.90;;;17.90;99.90;;;;;;4175281;28;20055;-43
2022/06/23 02:32:31;;;;;;;4.68;4.43;;;18.00;99.90;;;;;;4174932;28;20060;-44
2022/06/23 02:35:08;;;;;;;4.97;4.72;;;17.90;99.90;;;;;;4175315;28;20062;-43
2022/06/23 02:37:50;;;;;;;5.15;4.90;;;17.50;99.90;;;;;;4175054;28;20043;-42
2022/06/23 02:40:21;;;;;;;4.63;4.15;;;17.30;99.90;;;;;;4174850;28;20212;-44
2022/06/23 02:42:42;;;;;;;4.78;4.53;;;17.30;99.90;;;;;;4177013;28;20047;-44
2022/06/23 02:45:34;;;;;;;5.75;5.45;;;17.40;99.90;;;;;;4160712;28;20095;-44
2022/06/23 02:48:25;;;;;;;4.68;4.28;;;17.30;99.90;;;;;;4160452;28;20103;-44
2022/06/23 02:50:58;;;;;;;4.93;4.65;;;17.40;99.90;;;;;;4165394;28;20115;-45
2022/06/23 02:53:50;;;;;;;5.25;5.05;;;17.60;99.90;;;;;;4160883;28;20088;-47
2022/06/23 02:56:45;;;;;;;6.95;6.43;;;17.70;99.90;;;;;;4159706;28;20672;-42
2022/06/23 02:59:13;;;;;;;5.93;5.53;;;17.70;99.90;;;;;;4161043;28;20068;-43
2022/06/23 03:02:00;;;;;;;5.05;4.75;;;17.50;99.90;;;;;;4160755;28;20436;-44
2022/06/23 03:04:30;;;;;;;3.83;3.63;;;17.50;99.90;;;;;;4160648;28;20060;-43
2022/06/23 03:07:05;;;;;;;3.85;3.67;;;17.40;99.90;;;;;;4160664;28;20075;-44
2022/06/23 03:09:36;;;;;;;4.28;4.00;;;17.30;99.90;;;;;;4160409;28;20048;-46
2022/06/23 03:12:20;;;;;;;4.43;4.32;;;17.20;99.90;;;;;;4171165;28;20519;-43
2022/06/23 03:15:04;;;;;;;4.95;4.57;;;17.30;99.90;;;;;;4169820;28;20056;-44
2022/06/23 03:17:33;;;;;;;5.00;4.80;;;17.20;99.90;;;;;;4165558;28;20048;-44
2022/06/23 03:20:18;;;;;;;4.78;4.57;;;17.20;99.90;;;;;;4164298;28;20049;-44
2022/06/23 03:22:39;;;;;;;4.68;4.45;;;17.10;99.90;;;;;;4160724;28;20806;-43
2022/06/23 03:25:02;;;;;;;4.88;4.78;;;17.00;99.90;;;;;;4160622;28;20404;-44
2022/06/23 03:27:33;;;;;;;5.93;5.72;;;17.20;99.90;;;;;;4160563;28;20129;-44
2022/06/23 03:30:00;;;;;;;6.03;5.82;;;17.00;99.90;;;;;;4160663;28;20048;-43
2022/06/23 03:32:24;;;;;;;5.45;5.22;;;16.80;99.90;;;;;;4163552;28;20558;-47
2022/06/23 03:35:00;;;;;;;5.55;5.32;;;16.60;99.90;;;;;;4163392;28;20059;-44
2022/06/23 03:37:52;;;;;;;6.13;5.75;;;16.80;99.90;;;;;;4163488;28;20052;-43
2022/06/23 03:43:18;;;;;;;11.35;5.85;;;16.60;99.90;;;;;;4166596;28;20459;-44
2022/06/23 03:45:46;;;;;;;5.70;5.50;;;16.60;99.90;;;;;;4165506;28;20582;-44
2022/06/23 03:48:25;;;;;;;6.32;5.97;;;16.70;99.90;;;;;;4163310;28;20451;-47
2022/06/23 03:50:52;;;;;;;5.95;5.55;;;16.90;99.90;;;;;;4173353;28;20055;-44
2022/06/23 03:53:21;;;;;;;6.28;5.97;;;16.80;99.90;;;;;;4163230;28;20119;-44
2022/06/23 03:56:08;;;;;;;5.32;5.22;;;16.70;99.90;;;;;;4163410;28;20076;-43
2022/06/23 03:58:49;;;;;;;5.68;5.57;;;16.70;99.90;;;;;;4163425;28;20052;-42
2022/06/23 04:01:16;;;;;;;6.50;5.95;;;16.60;99.90;;;;;;4162920;28;20052;-42
2022/06/23 04:03:57;;;;;;;5.13;4.78;;;16.50;99.90;;;;;;4163031;28;20115;-44
2022/06/23 04:06:35;;;;;;;6.13;5.85;;;16.80;99.90;;;;;;4163415;28;20079;-45
2022/06/23 04:09:10;;;;;;;6.68;6.35;;;16.80;99.90;;;;;;4162971;28;20515;-44
2022/06/23 04:12:07;;;;;;;5.53;5.35;;;16.70;99.90;;;;;;4176474;28;20048;-43
2022/06/23 04:14:40;;;;;;;7.07;6.82;;;16.60;99.90;;;;;;4164196;28;20052;-48
2022/06/23 04:17:28;;;;;;;5.72;5.53;;;16.50;99.90;;;;;;4164551;28;20126;-45
2022/06/23 04:20:08;;;;;;;6.20;5.80;;;16.50;99.90;;;;;;4171953;28;20068;-43
2022/06/23 04:22:51;;;;;;;6.95;6.65;;;16.70;99.90;;;;;;4162363;28;20166;-43
2022/06/23 04:25:20;;;;;;;8.18;7.45;;;16.70;99.90;;;;;;4162734;28;20805;-45
2022/06/23 04:27:47;;;;;;;6.70;6.30;;;16.60;99.90;;;;;;4163529;28;21201;-43
2022/06/23 04:30:20;;;;;;;7.22;6.82;;;16.80;99.90;;;;;;4165047;28;20051;-44
2022/06/23 04:32:41;;;;;;;;;;;16.90;99.90;;;;;;4166286;28;20064;-43
2022/06/23 04:35:05;;;;;;;5.35;5.13;;;16.90;99.90;;;;;;4162643;28;20357;-44
2022/06/23 04:38:05;;;;;;;6.78;6.15;;;17.10;99.90;;;;;;4162804;28;20048;-45
2022/06/23 04:40:53;;;;;;;8.73;5.95;;;17.10;99.90;;;;;;4168832;28;20056;-45
2022/06/23 04:43:19;;;;;;;6.18;5.80;;;17.00;99.90;;;;;;4166407;28;20079;-45
2022/06/23 04:46:05;;;;;;;5.95;5.60;;;17.00;99.90;;;;;;4175422;28;20565;-43
2022/06/23 04:49:07;;;;;;;4.60;4.45;;;17.00;99.90;;;;;;4172743;28;20052;-43
2022/06/23 04:51:29;;;;;;;5.80;5.60;;;17.20;99.90;;;;;;4165632;28;20051;-44
2022/06/23 04:53:58;;;;;;;6.35;6.13;;;17.10;99.90;;;;;;4162570;28;20413;-42
2022/06/23 04:56:23;;;;;;;7.72;7.32;;;17.00;99.90;;;;;;4162386;28;20209;-47
2022/06/23 04:58:55;;;;;;;7.18;6.90;;;17.00;99.90;;;;;;4161738;28;20122;-44
2022/06/23 05:01:18;;;;;;;7.05;6.47;;;17.00;99.90;;;;;;4162086;28;20797;-44
2022/06/23 05:03:49;;;;;;;6.55;6.15;;;17.00;99.90;;;;;;4162471;28;20092;-44
2022/06/23 05:06:17;;;;;;;5.53;5.25;;;17.10;99.90;;;;;;4162990;28;20484;-43
2022/06/23 05:08:42;;;;;;;6.88;6.28;;;17.20;99.90;;;;;;4177869;28;20057;-44
2022/06/23 05:11:21;;;;;;;7.40;7.13;;;17.30;99.90;;;;;;4173183;28;20451;-44
2022/06/23 05:13:55;;;;;;;5.50;5.20;;;17.40;99.90;;;;;;4174520;28;20088;-44
2022/06/23 05:16:26;;;;;;;6.57;6.28;;;17.60;99.90;;;;;;4161899;28;20111;-45
2022/06/23 05:18:53;;;;;;;6.05;5.85;;;17.60;99.90;;;;;;4162238;28;20063;-43
2022/06/23 05:21:18;;;;;;;6.65;6.07;;;17.60;99.90;;;;;;4162097;28;20152;-43
2022/06/23 05:23:44;;;;;;;6.95;6.35;;;17.70;99.90;;;;;;4161982;28;20163;-43
2022/06/23 05:26:16;;;;;;;10.07;5.97;;;17.70;99.90;;;;;;4161764;28;20398;-43
2022/06/23 05:28:37;;;;;;;7.15;6.63;;;17.70;99.90;;;;;;4161694;28;20138;-47
2022/06/23 05:31:01;;;;;;;5.35;5.18;;;17.50;99.90;;;;;;4161647;28;20131;-45
2022/06/23 05:33:30;;;;;;;6.50;6.13;;;17.70;99.90;;;;;;4163954;28;20099;-42
2022/06/23 05:35:59;;;;;;;5.53;5.43;;;17.90;99.90;;;;;;4161555;28;20072;-45
2022/06/23 05:38:38;;;;;;;5.53;5.22;;;17.90;99.90;;;;;;4160680;28;20076;-44
2022/06/23 05:41:04;;;;;;;5.32;4.95;;;18.00;99.90;;;;;;4161426;28;20080;-44
2022/06/23 05:43:26;;;;;;;5.85;5.45;;;18.00;99.90;;;;;;4162252;28;20416;-44
2022/06/23 05:45:53;;;;;;;5.40;5.25;;;18.20;99.90;;;;;;4160769;28;20111;-44
2022/06/23 05:48:23;;;;;;;6.20;5.75;;;18.20;99.90;;;;;;4160466;28;20123;-45
2022/06/23 05:50:52;;;;;;;5.78;5.03;;;18.30;99.90;;;;;;4174641;28;20715;-45
2022/06/23 05:53:26;;;;;;;5.03;4.72;;;18.50;99.90;;;;;;4163764;28;20168;-43
2022/06/23 05:55:50;;;;;;;5.88;5.38;;;18.80;99.90;;;;;;4161525;28;20064;-45
2022/06/23 05:58:15;;;;;;;5.93;5.65;;;18.90;99.90;;;;;;4160945;28;20052;-44
2022/06/23 06:01:13;;;;;;;5.93;5.65;;;18.90;99.90;;;;;;4161296;28;20052;-45
2022/06/23 06:04:04;;;;;;;6.82;6.63;;;18.90;99.90;;;;;;4171412;28;20592;-43
2022/06/23 06:06:25;;;;;;;4.95;4.68;;;19.00;99.90;;;;;;4160903;28;20064;-46
2022/06/23 06:11:32;;;;;;;5.10;4.80;;;19.10;99.90;;;;;;4168093;28;20075;-43
2022/06/23 06:13:53;;;;;;;4.40;4.22;;;19.30;99.90;;;;;;4176990;28;20126;-43
2022/06/23 06:16:14;;;;;;;4.50;4.20;;;19.30;99.90;;;;;;4160919;28;20060;-44
2022/06/23 06:18:43;;;;;;;5.85;5.20;;;19.50;99.90;;;;;;4161860;28;20559;-44
2022/06/23 06:21:08;;;;;;;4.32;4.22;;;19.50;99.90;;;;;;4161104;28;20406;-43
2022/06/23 06:23:39;;;;;;;4.60;4.30;;;19.70;99.90;;;;;;4160923;28;20580;-45
2022/06/23 06:26:03;;;;;;;3.75;3.55;;;19.90;99.90;;;;;;4161142;28;20059;-43
2022/06/23 06:28:29;;;;;;;4.38;4.03;;;20.00;99.90;;;;;;4160751;28;20110;-45
2022/06/23 06:31:22;;;;;;;4.32;4.18;;;20.10;99.90;;;;;;4160609;28;20056;-44
2022/06/23 06:34:13;;;;;;;4.47;4.18;;;20.20;99.90;;;;;;4160871;28;20099;-45
2022/06/23 06:36:44;;;;;;;3.95;3.47;;;20.30;99.90;;;;;;4160999;28;20132;-44
2022/06/23 06:39:18;;;;;;;3.58;3.30;;;20.60;99.90;;;;;;4160625;28;20138;-45
2022/06/23 06:41:43;;;;;;;4.57;4.22;;;20.80;99.90;;;;;;4160928;28;20134;-44
2022/06/23 06:44:05;;;;;;;4.15;3.83;;;20.80;99.90;;;;;;4171610;28;20055;-44
2022/06/23 06:46:26;;;;;;;4.28;4.00;;;21.00;99.90;;;;;;4171267;28;20048;-43
2022/06/23 06:48:47;;;;;;;4.38;4.07;;;21.20;99.90;;;;;;4160733;28;20104;-43
2022/06/23 06:51:14;;;;;;;3.70;3.60;;;21.40;99.90;;;;;;4160673;28;20167;-44
2022/06/23 06:53:39;;;;;;;2.90;2.80;;;21.50;99.90;;;;;;4160554;28;20129;-45
2022/06/23 06:56:27;;;;;;;5.95;3.28;;;21.60;99.90;;;;;;4160405;28;20056;-44
2022/06/23 06:58:57;;;;;;;4.00;3.45;;;21.70;99.90;;;;;;4161234;28;20064;-44
2022/06/23 07:01:24;;;;;;;2.92;2.83;;;22.00;99.90;;;;;;4177179;28;20095;-44
2022/06/23 07:03:47;;;;;;;3.25;3.15;;;21.90;99.90;;;;;;4160569;28;20133;-45
2022/06/23 07:06:14;;;;;;;3.58;3.28;;;22.10;99.90;;;;;;4162429;28;20099;-43
2022/06/23 07:09:00;;;;;;;3.38;2.67;;;22.40;99.90;;;;;;4173203;28;20535;-44
2022/06/23 07:11:48;;;;;;;3.50;3.20;;;22.80;99.90;;;;;;4168239;28;20044;-45
2022/06/23 07:14:37;;;;;;;3.15;2.90;;;22.80;99.90;;;;;;4163880;28;20219;-45
2022/06/23 07:17:27;;;;;;;2.65;2.47;;;22.90;99.90;;;;;;4163944;28;20549;-45
2022/06/23 07:20:01;;;;;;;3.80;2.40;;;22.90;99.90;;;;;;4163680;28;20064;-44
2022/06/23 07:22:27;;;;;;;2.40;2.20;;;23.00;99.90;;;;;;4163523;28;20048;-44
2022/06/23 07:24:51;;;;;;;2.20;2.00;;;23.00;99.90;;;;;;4163896;28;20127;-44
2022/06/23 07:27:17;;;;;;;3.05;2.95;;;23.00;99.90;;;;;;4163474;28;20060;-44
2022/06/23 07:29:52;;;;;;;3.78;3.03;;;23.10;99.90;;;;;;4163790;28;20539;-44
2022/06/23 07:32:28;;;;;;;3.60;3.38;;;23.20;99.90;;;;;;4163100;28;20107;-43
2022/06/23 07:34:53;;;;;;;2.72;2.63;;;23.10;99.90;;;;;;4163290;28;20060;-44
2022/06/23 07:37:23;;;;;;;3.45;1.83;;;23.40;99.90;;;;;;4163413;28;20060;-44
2022/06/23 07:39:49;;;;;;;2.25;2.15;;;23.70;99.90;;;;;;4163384;28;20052;-45
2022/06/23 07:42:42;;;;;;;2.78;2.58;;;23.70;99.90;;;;;;4163082;28;20056;-43
2022/06/23 07:45:13;;;;;;;3.83;2.15;;;24.40;99.90;;;;;;4163611;28;20511;-44
2022/06/23 07:47:34;;;;;;;2.28;2.08;;;24.60;99.90;;;;;;4163383;28;20099;-43
2022/06/23 07:49:55;;;;;;;5.50;2.88;;;24.80;99.90;;;;;;4166577;28;20052;-43
2022/06/23 07:52:18;;;;;;;2.67;1.48;;;25.10;99.90;;;;;;4162930;28;20099;-46
2022/06/23 07:54:39;;;;;;;1.65;1.65;;;25.10;99.90;;;;;;4163013;28;20108;-44
2022/06/23 07:57:00;;;;;;;3.05;1.98;;;25.00;99.90;;;;;;4163351;28;20056;-44
2022/06/23 07:59:29;;;;;;;1.98;1.85;;;25.20;99.90;;;;;;4163095;28;20053;-45
2022/06/23 08:01:56;;;;;;;2.05;1.88;;;25.40;99.90;;;;;;4163231;28;20052;-44
2022/06/23 08:04:42;;;;;;;5.72;2.42;;;25.60;99.90;;;;;;4163157;28;20088;-44
2022/06/23 08:07:08;;;;;;;2.33;1.85;;;26.00;99.90;;;;;;4164279;28;20664;-43
2022/06/23 08:09:37;;;;;;;2.97;2.63;;;25.90;99.90;;;;;;4172394;28;20053;-44
2022/06/23 08:14:48;;;;;;;2.13;2.03;;;26.00;99.90;;;;;;4163165;28;20060;-43
2022/06/23 08:17:13;;;;;;;2.45;2.35;;;26.00;99.90;;;;;;4164339;28;20607;-43
2022/06/23 08:19:56;;;;;;;3.70;1.60;;;26.20;99.90;;;;;;4167765;28;20068;-45
2022/06/23 08:22:23;;;;;;;1.83;1.25;;;26.30;99.90;;;;;;4162925;28;20075;-43
2022/06/23 08:24:57;;;;;;;2.03;1.75;;;26.70;99.90;;;;;;4162718;28;20476;-45
2022/06/23 08:27:41;;;;;;;1.40;1.30;;;26.90;99.90;;;;;;4162822;28;20694;-45
2022/06/23 08:30:10;;;;;;;5.13;2.10;;;26.60;99.90;;;;;;4162848;28;20052;-44
2022/06/23 08:32:31;;;;;;;8.27;1.60;;;26.30;99.90;;;;;;4162362;28;20475;-44
2022/06/23 08:35:08;;;;;;;2.08;1.80;;;26.50;99.90;;;;;;4162584;28;20099;-44
2022/06/23 08:37:37;;;;;;;3.92;1.80;;;27.00;99.90;;;;;;4162208;28;20115;-44
2022/06/23 08:40:19;;;;;;;4.00;1.40;;;27.20;99.90;;;;;;4162734;28;20107;-44
2022/06/23 08:42:57;;;;;;;2.80;1.30;;;27.40;99.90;;;;;;4162268;28;20532;-44
2022/06/23 08:45:42;;;;;;;3.95;0.90;;;27.60;99.90;;;;;;4162678;28;20738;-44
2022/06/23 08:48:06;;;;;;;2.90;1.17;;;27.50;99.90;;;;;;4162288;28;20080;-44
2022/06/23 08:50:36;;;;;;;2.28;1.00;;;27.40;99.90;;;;;;4170748;28;20047;-46
2022/06/23 08:53:05;;;;;;;1.15;0.90;;;27.10;99.90;;;;;;4177513;28;20428;-46
2022/06/23 08:55:53;;;;;;;0.75;0.75;;;27.20;99.90;;;;;;4162373;28;20060;-44
2022/06/23 08:58:27;;;;;;;1.33;0.80;;;26.80;99.40;;;;;;4161833;28;20051;-43
2022/06/23 09:01:00;;;;;;;2.15;0.93;;;26.70;99.90;;;;;;4162209;28;20049;-44
2022/06/23 09:03:24;;;;;;;0.73;0.70;;;26.90;99.90;;;;;;4162222;28;20573;-43
2022/06/23 09:06:21;;;;;;;0.90;0.77;;;27.30;99.90;;;;;;4162150;28;20052;-43
2022/06/23 09:08:48;;;;;;;5.78;0.88;;;27.20;99.90;;;;;;4177002;28;20527;-43
2022/06/23 09:11:35;;;;;;;1.90;0.75;;;27.50;99.90;;;;;;4166803;28;20753;-44
2022/06/23 09:14:19;;;;;;;2.63;0.70;;;27.60;99.90;;;;;;4166204;28;20110;-45
2022/06/23 09:16:55;;;;;;;0.68;0.68;;;27.30;98.90;;;;;;4162209;28;20432;-43
2022/06/23 09:19:40;;;;;;;1.08;0.70;;;26.90;99.80;;;;;;4161667;28;20088;-45
2022/06/23 09:22:30;;;;;;;1.85;0.80;;;27.40;99.90;;;;;;4161796;28;20096;-45
2022/06/23 09:24:54;;;;;;;0.80;0.70;;;27.40;99.30;;;;;;4161109;28;20088;-44
2022/06/23 09:27:27;;;;;;;2.35;0.70;;;27.70;99.60;;;;;;4161766;28;20082;-44
2022/06/23 09:30:00;;;;;;;2.22;0.70;;;28.00;99.90;;;;;;4161191;28;20048;-43
2022/06/23 09:33:04;;;;;;;0.90;0.90;;;28.10;99.60;;;;;;4161682;28;20084;-45
2022/06/23 09:35:48;;;;;;;2.03;0.80;;;28.10;99.10;;;;;;4161833;28;20135;-45
2022/06/23 09:38:09;;;;;;;2.38;0.80;;;27.60;99.20;;;;;;4162830;28;20060;-43
2022/06/23 09:40:48;;;;;;;4.10;0.80;;;28.20;99.90;;;;;;4161920;28;20048;-44
2022/06/23 09:43:34;;;;;;;1.30;0.80;;;27.90;98.60;;;;;;4166052;28;20160;-43
2022/06/23 09:46:20;;;;;;;1.15;0.80;;;28.20;99.40;;;;;;4164895;28;20126;-45
2022/06/23 09:49:12;;;;;;;2.40;0.80;;;27.90;98.80;;;;;;4163155;28;20079;-44
2022/06/23 09:52:02;;;;;;;5.65;1.00;;;27.90;99.30;;;;;;4168218;28;20118;-45
2022/06/23 09:54:51;;;;;;;0.75;0.75;;;28.40;99.30;;;;;;4161463;28;20523;-44
2022/06/23 09:57:49;;;;;;;1.80;0.70;;;28.10;99.00;;;;;;4160128;28;20063;-45
2022/06/23 10:00:20;;;;;;;4.30;0.95;;;28.40;98.70;;;;;;4162304;28;20052;-45
2022/06/23 10:03:05;;;;;;;1.05;0.70;;;28.40;98.20;;;;;;4175479;28;20048;-45
2022/06/23 10:05:56;;;;;;;0.70;0.70;;;28.90;98.70;;;;;;4171213;28;20518;-44
2022/06/23 10:09:01;;;;;;;2.38;0.60;;;29.30;99.20;;;;;;4171774;28;20102;-45
2022/06/23 10:11:37;;;;;;;2.35;0.70;;;28.80;98.60;;;;;;4166979;28;20519;-45
2022/06/23 10:14:07;;;;;;;2.97;0.70;;;28.80;98.20;;;;;;4166153;28;20527;-44
2022/06/23 10:16:41;;;;;;;1.75;0.60;;;28.60;98.30;;;;;;4161059;28;20084;-44
2022/06/23 10:19:14;;;;;;;0.93;0.90;;;28.60;98.20;;;;;;4169949;28;20080;-43
2022/06/23 10:21:46;;;;;;;0.85;0.85;;;28.20;96.60;;;;;;4165250;28;20064;-43
2022/06/23 10:24:22;;;;;;;5.57;0.75;;;28.40;97.10;;;;;;4169795;28;20601;-44
2022/06/23 10:27:09;;;;;;;1.15;0.68;;;28.70;97.80;;;;;;4171893;28;20103;-44
2022/06/23 10:29:41;;;;;;;0.70;0.70;;;28.80;96.60;;;;;;4159850;28;20140;-44
2022/06/23 10:32:34;;;;;;;3.42;0.80;;;28.60;98.40;;;;;;4161963;28;20057;-43
2022/06/23 10:35:23;;;;;;;2.25;0.90;;;28.50;98.00;;;;;;4169771;28;20133;-45
2022/06/23 10:38:19;;;;;;;5.07;0.80;;;28.90;97.40;;;;;;4160806;28;20056;-44
2022/06/23 10:41:11;;;;;;;2.50;0.80;;;28.80;96.90;;;;;;4160119;28;20053;-44
2022/06/23 10:43:47;;;;;;;2.28;0.93;;;29.00;97.50;;;;;;4161860;28;20057;-43
2022/06/23 10:46:34;;;;;;;3.45;0.70;;;29.00;97.30;;;;;;4160439;28;20214;-45
2022/06/23 10:49:34;;;;;;;6.28;0.70;;;29.70;97.90;;;;;;4160694;28;20052;-44
2022/06/23 10:52:23;;;;;;;0.63;0.63;;;29.80;97.80;;;;;;4160795;28;20175;-46
2022/06/23 10:54:59;;;;;;;2.78;0.70;;;29.90;96.30;;;;;;4160512;28;20056;-44
2022/06/23 10:57:32;;;;;;;3.80;0.73;;;29.80;97.10;;;;;;4160485;28;20060;-43
2022/06/23 11:00:16;;;;;;;3.42;0.80;;;29.70;96.10;;;;;;4163878;28;20056;-43
2022/06/23 11:02:57;;;;;;;2.05;0.85;;;29.30;95.50;;;;;;4160298;28;20056;-43
2022/06/23 11:05:44;;;;;;;7.63;0.70;;;28.70;95.60;;;;;;4160478;28;20056;-44
2022/06/23 11:08:23;;;;;;;2.83;0.90;;;28.40;96.00;;;;;;4165580;28;20463;-43
2022/06/23 11:11:08;;;;;;;11.18;0.98;;;27.90;96.00;;;;;;4175284;28;20120;-45
2022/06/23 11:13:51;;;;;;;2.53;0.80;;;28.00;96.60;;;;;;4176997;28;20797;-44
2022/06/23 11:16:34;;;;;;;7.55;1.25;;;27.70;96.80;;;;;;4160338;28;20048;-43
2022/06/23 11:19:15;;;;;;;1.73;0.75;;;27.60;97.30;;;;;;4168813;28;20060;-46
2022/06/23 11:22:00;;;;;;;5.00;0.80;;;27.50;96.90;;;;;;4164648;28;20144;-44
2022/06/23 11:24:58;;;;;;;2.15;0.73;;;27.50;97.00;;;;;;4166553;28;20099;-43
2022/06/23 11:27:38;;;;;;;3.63;0.82;;;27.40;97.50;;;;;;4159394;28;20053;-44
2022/06/23 11:30:07;;;;;;;7.88;0.80;;;27.20;97.90;;;;;;4160770;28;20100;-45
2022/06/23 11:32:51;;;;;;;4.45;0.77;;;27.10;97.80;;;;;;4162840;28;20055;-43
2022/06/23 11:35:39;;;;;;;7.78;1.10;;;27.10;97.80;;;;;;4169122;28;20059;-44
2022/06/23 11:38:22;;;;;;;1.35;0.95;;;27.20;98.40;;;;;;4170244;28;20100;-43
2022/06/23 11:40:46;;;;;;;;;;;27.30;98.30;;;;;;4167026;28;20059;-44
2022/06/23 11:43:22;;;;;;;2.90;1.02;;;27.70;98.60;;;;;;4170883;28;19945;-47
2022/06/23 11:46:17;;;;;;;4.25;1.52;;;27.80;98.50;;;;;;4160886;28;20138;-44
2022/06/23 11:48:49;;;;;;;4.85;1.88;;;27.60;98.10;;;;;;4176714;28;20052;-44
2022/06/23 11:51:25;;;;;;;2.53;1.17;;;27.50;98.30;;;;;;4162465;28;20052;-44
2022/06/23 11:54:22;;;;;;;6.55;1.15;;;27.40;98.20;;;;;;4176744;28;20059;-44
2022/06/23 11:57:03;;;;;;;6.43;0.88;;;27.60;98.10;;;;;;4178877;28;20055;-44
2022/06/23 11:59:30;;;;;;;6.22;0.98;;;28.10;97.40;;;;;;4170413;28;20163;-44
2022/06/23 12:02:11;;;;;;;5.97;0.90;;;28.40;97.80;;;;;;4162950;28;20048;-45
2022/06/23 12:04:53;;;;;;;5.80;0.90;;;28.40;96.80;;;;;;4161986;28;20052;-44
2022/06/23 12:07:51;;;;;;;8.32;0.98;;;28.20;97.40;;;;;;4166142;28;20860;-44
2022/06/23 12:10:20;;;;;;;3.90;1.10;;;28.10;97.70;;;;;;4162957;28;20048;-46
2022/06/23 12:12:47;;;;;;;3.30;0.85;;;27.80;97.40;;;;;;4162524;28;20527;-44
2022/06/23 12:15:09;;;;;;;5.13;1.00;;;27.60;98.00;;;;;;4162808;28;20123;-44
2022/06/23 12:17:32;;;;;;;;;;;27.40;98.00;;;;;;4168714;28;20056;-43
2022/06/23 12:20:14;;;;;;;4.82;0.93;;;27.30;98.60;;;;;;4161596;28;20361;-45
2022/06/23 12:22:38;;;;;;;;;;;27.30;98.30;;;;;;4163239;28;20052;-43
2022/06/23 12:25:47;;;;;;;7.68;1.58;;;27.30;98.30;;;;;;4162765;28;20006;-44
2022/06/23 12:28:16;;;;;;;6.15;1.00;;;27.40;98.70;;;;;;4165980;28;20056;-44
2022/06/23 12:31:06;;;;;;;8.20;1.90;;;27.50;98.80;;;;;;4167734;28;20051;-44
2022/06/23 12:33:38;;;;;;;12.38;1.80;;;27.50;98.60;;;;;;4164285;28;20048;-44
2022/06/23 12:36:17;;;;;;;5.82;1.00;;;27.50;98.20;;;;;;4162783;28;20100;-44
2022/06/23 12:38:45;;;;;;;11.77;1.23;;;27.50;98.30;;;;;;4160222;28;20084;-44
2022/06/23 12:41:21;;;;;;;6.53;1.05;;;27.60;98.20;;;;;;4170909;28;20107;-50
2022/06/23 12:43:51;;;;;;;4.82;1.45;;;27.60;98.70;;;;;;4176723;28;20056;-48
2022/06/23 12:46:22;;;;;;;9.70;1.65;;;27.70;98.60;;;;;;4169608;28;20049;-49
2022/06/23 12:49:01;;;;;;;2.85;1.10;;;27.70;98.60;;;;;;4176921;28;20059;-50
2022/06/23 12:51:44;;;;;;;8.90;1.10;;;27.70;98.70;;;;;;4159975;28;20080;-47
2022/06/23 12:54:17;;;;;;;5.03;0.95;;;27.80;99.30;;;;;;4172814;28;20095;-50
2022/06/23 12:57:16;;;;;;;6.93;0.90;;;27.70;99.20;;;;;;4149490;28;20488;-50
2022/06/23 13:00:08;;;;;;;14.48;1.58;;;27.60;99.30;;;;;;4172449;28;20053;-49
2022/06/23 13:02:35;;;;;;;5.00;1.07;;;27.50;99.90;;;;;;4168832;28;20053;-50
2022/06/23 13:05:16;;;;;;;9.40;1.48;;;27.40;99.90;;;;;;4171714;28;20086;-50
2022/06/23 13:08:03;;;;;;;4.77;1.63;;;27.30;99.90;;;;;;4166137;28;20056;-47
2022/06/23 13:10:36;;;;;;;7.90;0.90;;;27.30;99.90;;;;;;4161601;28;20655;-49
2022/06/23 13:13:17;;;;;;;9.73;1.73;;;27.20;99.90;;;;;;4161904;28;20064;-49
2022/06/23 13:15:44;;;;;;;11.05;1.00;;;27.20;99.30;;;;;;4162304;28;20115;-49
2022/06/23 13:18:12;;;;;;;5.25;1.13;;;27.10;99.20;;;;;;4172076;28;20074;-50
2022/06/23 13:20:36;;;;;;;4.93;1.45;;;27.10;99.70;;;;;;4161990;28;20072;-49
2022/06/23 13:23:09;;;;;;;12.20;1.30;;;27.20;99.80;;;;;;4161700;28;20096;-50
2022/06/23 13:25:36;;;;;;;6.05;1.02;;;27.20;99.90;;;;;;4161636;28;20052;-50
2022/06/23 13:27:57;;;;;;;8.90;1.10;;;27.30;99.90;;;;;;4161422;28;20476;-48
2022/06/23 13:30:40;;;;;;;6.40;0.90;;;27.30;99.90;;;;;;4162131;28;20060;-50
2022/06/23 13:33:10;;;;;;;6.57;1.10;;;27.40;99.90;;;;;;4167214;28;20048;-47
2022/06/23 13:35:42;;;;;;;10.50;1.30;;;27.50;99.90;;;;;;4165289;28;20052;-47
2022/06/23 13:38:37;;;;;;;3.22;0.90;;;27.50;99.90;;;;;;4161381;28;20088;-50